Aérodrome :
LOGIN :

S'inscrire | Disclaimer

   EN    FR    IT 

 










Légende :    VFR   VFR Marginal   IFR   IFR Intensif   IFR Très Intensif
Visi : 
Plafond : 
>= 8 km
>= 3000ft
5 à 8 km
1000 à 3000 ft
1500m à 5 km
500 à 1000 ft
800 à 1500m
200 à 500 ft
< 800m
< 200 ft
Symboles :   Orages  Brouillard  Fortes neiges  Fortes précipitations  Vent > 20 kt
SIGMETs :   Divers  Orages  Givrage  Turbulence  Onde Orograph.  Cendres Volcan.






- Altitude de l'aérodrome : 121 ft
- Code IATA : HUY


EGNJ - Humberside

DERNIER METAR :
  • 280020Z AUTO 19011KT 9999 NCD 04/03 Q0987

METARs EXPIRÉS :
  • 272350Z AUTO 18011KT 9999 NCD 04/03 Q0987
  • 272320Z AUTO 18011KT 9999 NCD 05/04 Q0987
  • 272250Z AUTO 17010KT 9999 SCT008/// 05/04 Q0988
  • 272220Z AUTO 18011KT 9999 FEW011/// SCT016/// 05/04 Q0988
  • 272150Z AUTO 20010KT 9999 SCT017/// BKN030/// OVC035/// 05/04 Q0989

TAF TAF EGNJ
Valide du 28 à 00h jusqu'au 28 à 09h UTC


272301Z 2800/2809 18009KT 9999 FEW008 SCT016
BECMG 2800/2803 24010KT
TEMPO 2800/2803 6000 RA SHRA BKN008
PROB30
TEMPO 2803/2809 8000 SHRA BKN006
ATIS : +44 1652 682 020



MET'MAP, la Météo Aéronautique d'un coup d'oeil ! - Copyright ORBIFLY Décembre 2007 - Disclaimer

ORBIFLY MET'MAP TEAM :

Programmation & Développement : Alexandra Zaïnal
Sur une idée originale de : Baudouin d'Aumeries
Assistance à la programmation : Marc-Olivier Méhu
Soutien technique & logistique : Manuel Goepfert

Contact : metmap@orbifly.com




SOURCES & CREDITS :

   NOAA